Time;durP1;ratioP1;P1;durP2;ratioP2;P2;SDS_P1;SDS_P2;PMS_P1;PMS_P2;Temp;Humidity;BMP_temperature;BMP_pressure;BME280_temperature;BME280_humidity;BME280_pressure;Samples;Min_cycle;Max_cycle;Signal;HPM_P1;HPM_P2
2022/11/30 00:00:28;;;;;;;177.20;68.50;;;;;;;;;;5032573;28;20029;-73
2022/11/30 00:02:55;;;;;;;168.93;65.95;;;;;;;;;;5033917;28;20095;-73
2022/11/30 00:05:22;;;;;;;165.70;64.32;;;;;;;;;;5034137;28;20032;-74
2022/11/30 00:07:48;;;;;;;171.13;68.80;;;;;;;;;;5033708;28;20026;-73
2022/11/30 00:10:14;;;;;;;169.75;65.90;;;;;;;;;;5044100;28;20021;-73
2022/11/30 00:12:43;;;;;;;171.38;66.40;;;;;;;;;;5049438;28;20033;-72
2022/11/30 00:15:12;;;;;;;176.32;66.88;;;;;;;;;;5054559;28;20073;-73
2022/11/30 00:17:38;;;;;;;164.95;64.57;;;;;;;;;;5054350;28;20529;-71
2022/11/30 00:20:05;;;;;;;175.18;68.07;;;;;;;;;;5054220;28;20033;-71
2022/11/30 00:22:30;;;;;;;182.32;69.57;;;;;;;;;;5034410;28;20025;-72
2022/11/30 00:24:59;;;;;;;173.40;69.07;;;;;;;;;;5033095;28;20026;-73
2022/11/30 00:27:25;;;;;;;172.02;67.00;;;;;;;;;;5032819;28;20025;-72
2022/11/30 00:29:51;;;;;;;183.73;69.70;;;;;;;;;;5033215;28;20030;-74
2022/11/30 00:32:17;;;;;;;182.00;67.70;;;;;;;;;;5033305;28;20032;-73
2022/11/30 00:34:42;;;;;;;162.43;66.07;;;;;;;;;;5033673;28;20033;-74
2022/11/30 00:37:08;;;;;;;175.82;65.95;;;;;;;;;;5033143;28;20037;-73
2022/11/30 00:39:34;;;;;;;175.90;68.55;;;;;;;;;;5032874;28;20065;-73
2022/11/30 00:42:00;;;;;;;176.98;65.72;;;;;;;;;;5033285;28;20025;-73
2022/11/30 00:44:26;;;;;;;170.88;67.50;;;;;;;;;;5033149;28;20037;-73
2022/11/30 00:46:52;;;;;;;171.07;67.50;;;;;;;;;;5032840;28;20071;-73
2022/11/30 00:49:18;;;;;;;175.40;67.95;;;;;;;;;;5034170;28;20073;-73
2022/11/30 00:51:44;;;;;;;174.63;67.55;;;;;;;;;;5034132;28;20089;-74
2022/11/30 00:54:10;;;;;;;181.15;65.85;;;;;;;;;;5033778;28;20025;-74
2022/11/30 00:56:36;;;;;;;178.65;68.82;;;;;;;;;;5046453;28;20052;-73
2022/11/30 00:59:02;;;;;;;165.32;66.05;;;;;;;;;;5045990;28;20040;-73
2022/11/30 01:01:28;;;;;;;175.98;69.85;;;;;;;;;;5032065;28;20033;-73
2022/11/30 01:03:54;;;;;;;178.73;68.55;;;;;;;;;;5038547;28;20026;-74
2022/11/30 01:06:20;;;;;;;177.25;66.60;;;;;;;;;;5035887;28;20045;-73
2022/11/30 01:08:46;;;;;;;171.63;66.70;;;;;;;;;;5036865;28;20048;-73
2022/11/30 01:11:23;;;;;;;182.93;68.93;;;;;;;;;;5037028;28;20498;-74
2022/11/30 01:13:50;;;;;;;197.68;69.53;;;;;;;;;;5037443;28;20104;-72
2022/11/30 01:16:18;;;;;;;181.80;67.00;;;;;;;;;;5054700;28;20033;-71
2022/11/30 01:18:44;;;;;;;180.30;67.95;;;;;;;;;;5059140;28;20029;-73
2022/11/30 01:21:12;;;;;;;182.00;67.93;;;;;;;;;;5043628;28;20025;-73
2022/11/30 01:23:38;;;;;;;190.32;70.15;;;;;;;;;;5036376;28;20025;-73
2022/11/30 01:26:04;;;;;;;179.55;66.68;;;;;;;;;;5036269;28;20029;-73
2022/11/30 01:28:30;;;;;;;179.48;67.93;;;;;;;;;;5037043;28;20029;-73
2022/11/30 01:31:00;;;;;;;181.77;68.05;;;;;;;;;;5036243;28;20041;-73
2022/11/30 01:33:26;;;;;;;189.02;67.88;;;;;;;;;;5036420;28;20030;-73
2022/11/30 01:36:06;;;;;;;184.77;67.60;;;;;;;;;;5036761;28;20498;-73
2022/11/30 01:38:37;;;;;;;176.90;65.53;;;;;;;;;;5036337;28;20029;-73
2022/11/30 01:41:04;;;;;;;186.23;67.80;;;;;;;;;;5036017;28;20052;-73
2022/11/30 01:43:41;;;;;;;196.35;69.70;;;;;;;;;;5036465;28;20029;-74
2022/11/30 01:46:19;;;;;;;193.93;69.03;;;;;;;;;;5036970;28;20155;-74
2022/11/30 01:48:45;;;;;;;198.48;71.43;;;;;;;;;;5037155;28;20025;-73
2022/11/30 01:51:11;;;;;;;185.85;67.18;;;;;;;;;;5037822;28;20033;-74
2022/11/30 01:53:37;;;;;;;178.60;67.82;;;;;;;;;;5036793;28;20367;-73
2022/11/30 01:56:03;;;;;;;189.63;69.38;;;;;;;;;;5036764;28;20021;-74
2022/11/30 01:58:31;;;;;;;180.75;69.53;;;;;;;;;;5034723;28;20411;-72
2022/11/30 02:00:57;;;;;;;190.40;69.50;;;;;;;;;;5035713;28;20025;-74
2022/11/30 02:03:28;;;;;;;189.60;69.03;;;;;;;;;;5036228;28;20091;-73
2022/11/30 02:05:54;;;;;;;198.43;73.10;;;;;;;;;;5035823;28;20029;-73
2022/11/30 02:08:20;;;;;;;189.40;69.40;;;;;;;;;;5036294;28;20052;-72
2022/11/30 02:10:49;;;;;;;199.32;72.22;;;;;;;;;;5035014;28;20140;-74
2022/11/30 02:13:34;;;;;;;207.35;73.68;;;;;;;;;;5036251;28;20059;-72
2022/11/30 02:16:00;;;;;;;184.73;70.43;;;;;;;;;;5035446;28;20036;-74
2022/11/30 02:18:36;;;;;;;195.80;70.88;;;;;;;;;;5035663;28;20037;-73
2022/11/30 02:21:14;;;;;;;187.88;70.15;;;;;;;;;;5036244;28;20390;-73
2022/11/30 02:23:49;;;;;;;195.68;70.57;;;;;;;;;;5036506;28;20421;-74
2022/11/30 02:26:15;;;;;;;;;;;;;;;;;;5039075;28;20029;-74
2022/11/30 02:28:50;;;;;;;203.75;74.25;;;;;;;;;;5050864;28;19917;-72
2022/11/30 02:31:18;;;;;;;191.70;70.07;;;;;;;;;;5058414;28;20060;-72
2022/11/30 02:33:44;;;;;;;189.43;70.60;;;;;;;;;;5059504;28;20040;-72
2022/11/30 02:36:10;;;;;;;205.13;74.50;;;;;;;;;;5055761;28;20017;-72
2022/11/30 02:38:37;;;;;;;199.07;71.57;;;;;;;;;;5057451;28;20028;-73
2022/11/30 02:41:03;;;;;;;202.68;72.85;;;;;;;;;;5035581;28;20053;-73
2022/11/30 02:43:30;;;;;;;201.10;73.90;;;;;;;;;;5034843;28;20481;-74
2022/11/30 02:45:56;;;;;;;204.40;72.03;;;;;;;;;;5032927;28;20532;-74
2022/11/30 02:48:28;;;;;;;202.45;74.82;;;;;;;;;;5034922;28;20033;-73
2022/11/30 02:50:56;;;;;;;189.90;70.90;;;;;;;;;;5034895;28;20446;-72
2022/11/30 02:53:22;;;;;;;196.15;71.88;;;;;;;;;;5034810;28;20096;-71
2022/11/30 02:55:48;;;;;;;195.90;72.32;;;;;;;;;;5034542;28;20056;-73
2022/11/30 02:58:14;;;;;;;199.10;73.53;;;;;;;;;;5035125;28;20524;-72
2022/11/30 03:00:40;;;;;;;196.05;71.82;;;;;;;;;;5035350;28;20036;-73
2022/11/30 03:03:06;;;;;;;205.70;70.72;;;;;;;;;;5035285;28;20021;-74
2022/11/30 03:05:32;;;;;;;206.65;72.97;;;;;;;;;;5036084;28;20021;-73
2022/11/30 03:07:58;;;;;;;196.18;72.63;;;;;;;;;;5038900;28;20068;-73
2022/11/30 03:10:24;;;;;;;206.43;72.75;;;;;;;;;;5037607;28;20078;-73
2022/11/30 03:12:50;;;;;;;205.48;74.45;;;;;;;;;;5034777;28;20025;-73
2022/11/30 03:15:16;;;;;;;205.85;74.05;;;;;;;;;;5034998;28;20039;-73
2022/11/30 03:17:42;;;;;;;204.27;75.10;;;;;;;;;;5036983;28;20077;-73
2022/11/30 03:20:08;;;;;;;199.40;72.15;;;;;;;;;;5035873;28;20478;-73
2022/11/30 03:22:34;;;;;;;204.55;74.25;;;;;;;;;;5033854;28;20021;-71
2022/11/30 03:25:00;;;;;;;200.27;73.60;;;;;;;;;;5034172;28;20036;-73
2022/11/30 03:27:26;;;;;;;204.80;74.28;;;;;;;;;;5033601;28;20041;-73
2022/11/30 03:29:52;;;;;;;214.65;75.30;;;;;;;;;;5039141;28;20032;-72
2022/11/30 03:32:18;;;;;;;196.80;72.70;;;;;;;;;;5055554;28;20025;-73
2022/11/30 03:34:44;;;;;;;194.90;72.20;;;;;;;;;;5046191;28;20026;-74
2022/11/30 03:37:10;;;;;;;200.90;71.72;;;;;;;;;;5033952;28;20033;-73
2022/11/30 03:39:36;;;;;;;203.82;72.13;;;;;;;;;;5033784;28;20033;-74
2022/11/30 03:42:02;;;;;;;202.35;70.72;;;;;;;;;;5034240;28;20030;-73
2022/11/30 03:44:28;;;;;;;203.10;70.30;;;;;;;;;;5034961;28;20052;-73
2022/11/30 03:46:54;;;;;;;197.98;71.45;;;;;;;;;;5033672;28;20014;-72
2022/11/30 03:49:20;;;;;;;211.95;73.95;;;;;;;;;;5034993;28;20090;-75
2022/11/30 03:51:46;;;;;;;209.57;73.25;;;;;;;;;;5034041;28;20025;-75
2022/11/30 03:54:12;;;;;;;206.02;73.75;;;;;;;;;;5033931;28;20013;-75
2022/11/30 03:56:38;;;;;;;211.55;75.28;;;;;;;;;;5040404;28;20026;-76
2022/11/30 03:59:04;;;;;;;219.13;76.25;;;;;;;;;;5050488;28;20029;-78
2022/11/30 04:01:30;;;;;;;221.63;77.13;;;;;;;;;;5040065;28;20033;-78
2022/11/30 04:03:56;;;;;;;211.35;74.38;;;;;;;;;;5039161;28;20083;-78
2022/11/30 04:06:22;;;;;;;220.05;73.97;;;;;;;;;;5037588;28;20049;-79
2022/11/30 04:08:48;;;;;;;219.15;75.50;;;;;;;;;;5038763;28;20387;-80
2022/11/30 04:11:14;;;;;;;214.38;75.53;;;;;;;;;;5041460;28;20038;-79
2022/11/30 04:13:41;;;;;;;238.95;79.03;;;;;;;;;;5039270;28;20021;-78
2022/11/30 04:16:07;;;;;;;221.65;76.40;;;;;;;;;;5037519;28;20033;-79
2022/11/30 04:18:34;;;;;;;225.63;75.18;;;;;;;;;;5038371;28;20035;-78
2022/11/30 04:21:01;;;;;;;232.40;78.28;;;;;;;;;;5039071;28;20029;-78
2022/11/30 04:23:31;;;;;;;221.95;76.63;;;;;;;;;;5040368;28;20081;-79
2022/11/30 04:25:57;;;;;;;225.57;77.45;;;;;;;;;;5040527;28;20032;-78
2022/11/30 04:28:23;;;;;;;222.00;76.97;;;;;;;;;;5043609;28;20022;-78
2022/11/30 04:30:49;;;;;;;225.65;75.72;;;;;;;;;;5043916;28;20124;-78
2022/11/30 04:33:15;;;;;;;231.82;75.70;;;;;;;;;;5044481;28;20076;-78
2022/11/30 04:35:43;;;;;;;214.93;74.15;;;;;;;;;;5043384;28;20541;-77
2022/11/30 04:38:09;;;;;;;232.88;77.78;;;;;;;;;;5055066;28;20037;-76
2022/11/30 04:40:38;;;;;;;225.98;74.82;;;;;;;;;;5054613;28;20021;-73
2022/11/30 04:43:04;;;;;;;227.13;76.35;;;;;;;;;;5054124;28;20026;-73
2022/11/30 04:45:30;;;;;;;223.55;74.88;;;;;;;;;;5038424;28;20507;-74
2022/11/30 04:47:56;;;;;;;221.38;74.82;;;;;;;;;;5042932;28;20561;-75
2022/11/30 04:50:22;;;;;;;235.52;76.30;;;;;;;;;;5035035;28;20494;-75
2022/11/30 04:52:47;;;;;;;234.55;77.65;;;;;;;;;;5036682;28;20024;-74
2022/11/30 04:55:16;;;;;;;232.25;72.80;;;;;;;;;;5041337;28;20021;-73
2022/11/30 04:57:41;;;;;;;228.93;74.03;;;;;;;;;;5044314;28;20021;-73
2022/11/30 05:00:08;;;;;;;219.52;76.22;;;;;;;;;;5033295;28;20475;-74
2022/11/30 05:02:34;;;;;;;236.75;79.15;;;;;;;;;;5031824;28;20025;-74
2022/11/30 05:05:00;;;;;;;227.55;77.25;;;;;;;;;;5033512;28;20040;-74
2022/11/30 05:07:26;;;;;;;234.43;76.15;;;;;;;;;;5032036;28;20107;-75
2022/11/30 05:09:52;;;;;;;236.07;76.03;;;;;;;;;;5032667;28;20033;-74
2022/11/30 05:12:18;;;;;;;223.82;75.22;;;;;;;;;;5033118;28;20434;-76
2022/11/30 05:14:44;;;;;;;238.10;75.47;;;;;;;;;;5035230;28;20083;-74
2022/11/30 05:17:10;;;;;;;239.70;76.90;;;;;;;;;;5032933;28;20131;-74
2022/11/30 05:19:36;;;;;;;239.13;78.22;;;;;;;;;;5033741;28;20083;-74
2022/11/30 05:22:02;;;;;;;224.02;76.80;;;;;;;;;;5033332;28;20112;-74
2022/11/30 05:24:28;;;;;;;244.32;75.88;;;;;;;;;;5033236;28;20068;-73
2022/11/30 05:26:54;;;;;;;238.93;77.13;;;;;;;;;;5032138;28;20028;-73
2022/11/30 05:29:20;;;;;;;232.65;77.07;;;;;;;;;;5033851;28;20018;-76
2022/11/30 05:31:46;;;;;;;234.02;75.28;;;;;;;;;;5033416;28;20079;-74
2022/11/30 05:34:12;;;;;;;238.18;78.00;;;;;;;;;;5042022;28;20029;-74
2022/11/30 05:36:38;;;;;;;235.32;76.55;;;;;;;;;;5040012;28;20068;-74
2022/11/30 05:39:04;;;;;;;242.02;76.40;;;;;;;;;;5043649;28;20025;-75
2022/11/30 05:41:30;;;;;;;247.90;80.55;;;;;;;;;;5036522;28;20025;-75
2022/11/30 05:43:56;;;;;;;248.57;77.70;;;;;;;;;;5032378;28;20030;-74
2022/11/30 05:46:22;;;;;;;229.57;73.45;;;;;;;;;;5033304;28;20022;-73
2022/11/30 05:48:48;;;;;;;241.35;79.53;;;;;;;;;;5036220;28;20033;-73
2022/11/30 05:51:15;;;;;;;236.48;76.30;;;;;;;;;;5036270;28;20478;-73
2022/11/30 05:53:42;;;;;;;229.60;75.40;;;;;;;;;;5036277;28;20029;-74
2022/11/30 05:56:10;;;;;;;237.90;78.63;;;;;;;;;;5035066;28;20064;-76
2022/11/30 05:58:36;;;;;;;246.30;78.60;;;;;;;;;;5037140;28;20033;-74
2022/11/30 06:01:02;;;;;;;244.95;77.45;;;;;;;;;;5036595;28;20040;-76
2022/11/30 06:03:29;;;;;;;238.55;75.20;;;;;;;;;;5034321;28;20021;-76
2022/11/30 06:05:54;;;;;;;240.00;75.45;;;;;;;;;;5042536;28;20008;-72
2022/11/30 06:08:20;;;;;;;239.35;76.88;;;;;;;;;;5048882;28;20140;-72
2022/11/30 06:10:47;;;;;;;251.70;76.32;;;;;;;;;;5040687;28;20033;-75
2022/11/30 06:13:13;;;;;;;248.98;75.57;;;;;;;;;;5035443;28;20033;-75
2022/11/30 06:15:39;;;;;;;243.60;74.28;;;;;;;;;;5035825;28;20036;-75
2022/11/30 06:18:06;;;;;;;242.20;75.40;;;;;;;;;;5037683;28;20485;-74
2022/11/30 06:20:32;;;;;;;245.82;77.82;;;;;;;;;;5036939;28;20089;-74
2022/11/30 06:22:58;;;;;;;236.75;74.03;;;;;;;;;;5036695;28;20064;-74
2022/11/30 06:25:25;;;;;;;227.40;73.80;;;;;;;;;;5036472;28;20372;-75
2022/11/30 06:27:51;;;;;;;222.60;73.95;;;;;;;;;;5034967;28;20153;-74
2022/11/30 06:30:17;;;;;;;240.30;74.38;;;;;;;;;;5039422;28;20032;-72
2022/11/30 06:32:44;;;;;;;233.88;75.13;;;;;;;;;;5042794;28;20017;-72
2022/11/30 06:35:10;;;;;;;240.00;75.10;;;;;;;;;;5040827;28;20038;-74
2022/11/30 06:37:36;;;;;;;229.15;75.22;;;;;;;;;;5041358;28;20095;-75
2022/11/30 06:40:02;;;;;;;228.52;73.93;;;;;;;;;;5044169;28;20033;-73
2022/11/30 06:42:29;;;;;;;231.05;72.47;;;;;;;;;;5045829;28;20021;-73
2022/11/30 06:44:55;;;;;;;245.15;75.72;;;;;;;;;;5047110;28;20025;-75
2022/11/30 06:47:21;;;;;;;224.00;71.47;;;;;;;;;;5040508;28;20554;-75
2022/11/30 06:49:47;;;;;;;222.02;70.38;;;;;;;;;;5044349;28;20026;-76
2022/11/30 06:52:13;;;;;;;253.73;74.93;;;;;;;;;;5040095;28;20471;-76
2022/11/30 06:54:38;;;;;;;229.77;73.90;;;;;;;;;;5038712;28;20029;-76
2022/11/30 06:57:04;;;;;;;219.55;72.25;;;;;;;;;;5035021;28;20501;-77
2022/11/30 06:59:30;;;;;;;229.93;73.70;;;;;;;;;;5035339;28;20036;-77
2022/11/30 07:01:56;;;;;;;223.35;72.25;;;;;;;;;;5040807;28;20033;-76
2022/11/30 07:04:22;;;;;;;217.65;71.72;;;;;;;;;;5035415;28;20029;-75
2022/11/30 07:06:48;;;;;;;211.50;70.00;;;;;;;;;;5040099;28;20017;-74
2022/11/30 07:09:14;;;;;;;209.75;68.05;;;;;;;;;;5039124;28;20093;-74
2022/11/30 07:11:40;;;;;;;228.68;69.05;;;;;;;;;;5043686;28;20048;-73
2022/11/30 07:14:06;;;;;;;209.63;68.63;;;;;;;;;;5051198;28;20514;-74
2022/11/30 07:16:32;;;;;;;194.00;65.93;;;;;;;;;;5053106;28;20059;-75
2022/11/30 07:18:58;;;;;;;221.32;71.30;;;;;;;;;;5035276;28;20021;-75
2022/11/30 07:21:24;;;;;;;222.63;71.90;;;;;;;;;;5034374;28;20033;-76
2022/11/30 07:26:35;;;;;;;243.50;76.15;;;;;;;;;;5031130;28;20029;-77
2022/11/30 07:29:01;;;;;;;208.18;70.85;;;;;;;;;;5034271;28;20029;-74
2022/11/30 07:31:30;;;;;;;214.25;69.55;;;;;;;;;;5034336;28;20052;-75
2022/11/30 07:33:57;;;;;;;213.20;71.15;;;;;;;;;;5029330;28;20414;-76
2022/11/30 07:36:24;;;;;;;204.38;70.03;;;;;;;;;;5033765;28;20039;-75
2022/11/30 07:38:50;;;;;;;228.13;71.72;;;;;;;;;;5036939;28;20076;-72
2022/11/30 07:41:17;;;;;;;217.70;71.57;;;;;;;;;;5054876;28;20045;-72
2022/11/30 07:43:43;;;;;;;202.45;68.90;;;;;;;;;;5055981;28;20017;-71
2022/11/30 07:46:13;;;;;;;216.88;69.80;;;;;;;;;;5035304;28;20235;-73
2022/11/30 07:48:39;;;;;;;195.00;65.38;;;;;;;;;;5034157;28;20121;-74
2022/11/30 07:51:06;;;;;;;197.85;68.05;;;;;;;;;;5034736;28;20048;-74
2022/11/30 07:53:32;;;;;;;184.35;64.22;;;;;;;;;;5036509;28;20029;-76
2022/11/30 07:56:02;;;;;;;194.57;67.22;;;;;;;;;;5037918;28;20025;-77
2022/11/30 07:58:28;;;;;;;190.10;64.68;;;;;;;;;;5037076;28;20029;-79
2022/11/30 08:00:54;;;;;;;185.07;64.75;;;;;;;;;;5017631;28;20376;-77
2022/11/30 08:03:20;;;;;;;193.63;65.28;;;;;;;;;;5036345;28;20026;-75
2022/11/30 08:05:46;;;;;;;200.02;66.40;;;;;;;;;;5034571;28;20036;-76
2022/11/30 08:08:12;;;;;;;185.35;64.57;;;;;;;;;;5034271;28;20053;-76
2022/11/30 08:10:38;;;;;;;179.88;62.78;;;;;;;;;;5034024;28;20029;-74
2022/11/30 08:13:04;;;;;;;173.88;63.00;;;;;;;;;;5034850;28;20055;-77
2022/11/30 08:15:30;;;;;;;181.75;64.80;;;;;;;;;;5034381;28;20021;-75
2022/11/30 08:17:56;;;;;;;169.57;61.97;;;;;;;;;;5035111;28;20125;-75
2022/11/30 08:20:22;;;;;;;174.93;64.30;;;;;;;;;;5037162;28;20595;-75
2022/11/30 08:22:48;;;;;;;185.73;66.40;;;;;;;;;;5037817;28;20044;-74
2022/11/30 08:25:14;;;;;;;217.02;72.97;;;;;;;;;;5038074;28;20434;-76
2022/11/30 08:27:40;;;;;;;226.45;73.07;;;;;;;;;;5036937;28;20030;-75
2022/11/30 08:30:06;;;;;;;215.25;71.82;;;;;;;;;;5037983;28;20033;-74
2022/11/30 08:32:32;;;;;;;217.23;72.82;;;;;;;;;;5038397;28;20044;-75
2022/11/30 08:34:58;;;;;;;215.68;72.75;;;;;;;;;;5037262;28;20033;-75
2022/11/30 08:37:24;;;;;;;218.23;73.57;;;;;;;;;;5036508;28;20024;-74
2022/11/30 08:39:50;;;;;;;205.32;68.07;;;;;;;;;;5036509;28;20060;-78
2022/11/30 08:42:16;;;;;;;195.88;66.30;;;;;;;;;;5053509;28;20052;-76
2022/11/30 08:44:42;;;;;;;187.77;67.10;;;;;;;;;;5054034;28;20029;-76
2022/11/30 08:47:08;;;;;;;189.07;67.93;;;;;;;;;;5040098;28;20056;-76
2022/11/30 08:49:34;;;;;;;182.52;67.50;;;;;;;;;;5034649;28;20025;-75
2022/11/30 08:52:00;;;;;;;186.75;66.18;;;;;;;;;;5033360;28;20026;-76
2022/11/30 08:54:26;;;;;;;199.40;70.20;;;;;;;;;;5034301;28;20457;-75
2022/11/30 08:56:52;;;;;;;211.15;75.20;;;;;;;;;;5033303;28;20075;-76
2022/11/30 08:59:18;;;;;;;230.43;76.07;;;;;;;;;;5034458;28;20108;-76
2022/11/30 09:01:44;;;;;;;201.20;70.18;;;;;;;;;;5035916;28;20034;-77
2022/11/30 09:04:10;;;;;;;216.40;71.97;;;;;;;;;;5035591;28;20048;-75
2022/11/30 09:06:36;;;;;;;244.65;78.90;;;;;;;;;;5036736;28;20087;-75
2022/11/30 09:09:02;;;;;;;197.15;69.60;;;;;;;;;;5035176;28;20497;-76
2022/11/30 09:11:32;;;;;;;220.18;74.00;;;;;;;;;;5036262;28;20425;-77
2022/11/30 09:13:59;;;;;;;214.35;73.38;;;;;;;;;;5043633;28;20018;-74
2022/11/30 09:16:25;;;;;;;228.20;74.90;;;;;;;;;;5034646;28;20030;-77
2022/11/30 09:18:51;;;;;;;207.90;69.15;;;;;;;;;;5034615;28;20057;-76
2022/11/30 09:21:19;;;;;;;214.57;71.88;;;;;;;;;;5035411;28;20026;-76
2022/11/30 09:23:46;;;;;;;212.30;70.82;;;;;;;;;;5037936;28;20017;-80
2022/11/30 09:26:13;;;;;;;214.18;70.93;;;;;;;;;;5037467;28;20122;-72
2022/11/30 09:28:40;;;;;;;198.55;69.38;;;;;;;;;;5037420;28;20041;-79
2022/11/30 09:31:16;;;;;;;206.23;70.70;;;;;;;;;;5038543;28;20059;-75
2022/11/30 09:33:43;;;;;;;209.43;72.82;;;;;;;;;;5039273;28;20103;-73
2022/11/30 09:36:10;;;;;;;197.27;68.68;;;;;;;;;;5038808;28;20391;-77
2022/11/30 09:38:37;;;;;;;191.70;67.28;;;;;;;;;;5036947;28;20029;-74
2022/11/30 09:41:13;;;;;;;185.27;67.72;;;;;;;;;;5036216;28;20538;-78
2022/11/30 09:44:03;;;;;;;181.82;67.18;;;;;;;;;;5036766;28;20025;-76
2022/11/30 09:46:40;;;;;;;174.48;65.80;;;;;;;;;;5034763;28;20072;-75
2022/11/30 09:49:24;;;;;;;187.27;65.43;;;;;;;;;;5036788;28;20045;-76
2022/11/30 09:51:51;;;;;;;188.10;67.57;;;;;;;;;;5036510;28;20040;-75
2022/11/30 09:54:35;;;;;;;177.75;68.03;;;;;;;;;;5053544;23;20497;-76
2022/11/30 09:57:11;;;;;;;178.77;66.20;;;;;;;;;;5055424;28;20049;-79
2022/11/30 09:59:37;;;;;;;167.68;63.45;;;;;;;;;;5055597;28;20030;-76
2022/11/30 10:02:16;;;;;;;164.45;63.05;;;;;;;;;;5051886;28;20022;-76
2022/11/30 10:04:43;;;;;;;164.43;62.20;;;;;;;;;;5041720;28;20104;-76
2022/11/30 10:07:29;;;;;;;159.45;61.05;;;;;;;;;;5038894;28;20021;-76
2022/11/30 10:09:59;;;;;;;157.18;61.08;;;;;;;;;;5030747;28;20119;-76
2022/11/30 10:12:31;;;;;;;171.55;63.35;;;;;;;;;;5039843;28;20440;-77
2022/11/30 10:15:16;;;;;;;168.02;64.30;;;;;;;;;;5039197;28;20033;-77
2022/11/30 10:17:53;;;;;;;162.45;63.03;;;;;;;;;;5043130;28;20386;-76
2022/11/30 10:20:34;;;;;;;162.18;61.47;;;;;;;;;;5039792;28;20025;-76
2022/11/30 10:23:08;;;;;;;161.05;61.85;;;;;;;;;;5037896;28;20044;-76
2022/11/30 10:25:53;;;;;;;154.00;60.10;;;;;;;;;;5037931;28;20032;-77
2022/11/30 10:28:25;;;;;;;152.63;63.38;;;;;;;;;;5038878;28;20038;-76
2022/11/30 10:30:51;;;;;;;162.00;62.65;;;;;;;;;;5043454;28;20060;-77
2022/11/30 10:33:18;;;;;;;158.77;62.35;;;;;;;;;;5039244;28;20029;-76
2022/11/30 10:35:47;;;;;;;155.98;61.20;;;;;;;;;;5041269;28;20025;-76
2022/11/30 10:38:17;;;;;;;151.20;60.30;;;;;;;;;;5042379;28;20029;-77
2022/11/30 10:40:45;;;;;;;148.95;56.85;;;;;;;;;;5055805;28;20057;-76
2022/11/30 10:43:32;;;;;;;150.07;58.03;;;;;;;;;;5056052;28;20048;-75
2022/11/30 10:45:58;;;;;;;145.57;58.03;;;;;;;;;;5046033;28;20421;-76
2022/11/30 10:48:45;;;;;;;135.48;56.90;;;;;;;;;;5037806;28;20087;-76
2022/11/30 10:51:11;;;;;;;132.80;55.65;;;;;;;;;;5035813;28;20025;-76
2022/11/30 10:53:37;;;;;;;132.18;54.35;;;;;;;;;;5038857;28;20035;-77
2022/11/30 10:56:07;;;;;;;111.05;50.50;;;;;;;;;;5036699;28;20040;-76
2022/11/30 10:58:37;;;;;;;120.20;52.42;;;;;;;;;;5034410;28;20041;-77
2022/11/30 11:01:05;;;;;;;116.65;52.30;;;;;;;;;;5038232;28;20433;-77
2022/11/30 11:03:31;;;;;;;113.13;51.58;;;;;;;;;;5038721;28;20044;-77
2022/11/30 11:06:21;;;;;;;115.32;50.58;;;;;;;;;;5037604;28;20051;-77
2022/11/30 11:08:47;;;;;;;110.25;49.17;;;;;;;;;;5036627;28;20021;-76
2022/11/30 11:11:26;;;;;;;118.57;52.05;;;;;;;;;;5036561;28;20037;-77
2022/11/30 11:13:52;;;;;;;114.40;50.53;;;;;;;;;;5038356;28;20033;-77
2022/11/30 11:16:18;;;;;;;102.93;46.85;;;;;;;;;;5038535;28;20041;-77
2022/11/30 11:18:52;;;;;;;102.93;46.22;;;;;;;;;;5041696;28;20031;-75
2022/11/30 11:21:19;;;;;;;107.38;49.55;;;;;;;;;;5037051;28;20034;-76
2022/11/30 11:23:45;;;;;;;119.22;51.50;;;;;;;;;;5036696;28;20049;-79
2022/11/30 11:26:22;;;;;;;108.68;50.08;;;;;;;;;;5035489;28;20025;-78
2022/11/30 11:28:49;;;;;;;115.65;51.28;;;;;;;;;;5036966;28;20021;-76
2022/11/30 11:31:34;;;;;;;116.15;53.38;;;;;;;;;;5036722;28;20068;-76
2022/11/30 11:34:00;;;;;;;126.07;55.35;;;;;;;;;;5036331;28;20096;-77
2022/11/30 11:36:28;;;;;;;126.15;53.25;;;;;;;;;;5034634;28;20030;-78
2022/11/30 11:38:54;;;;;;;124.80;55.13;;;;;;;;;;5035563;28;20025;-78
2022/11/30 11:41:20;;;;;;;131.85;59.47;;;;;;;;;;5035438;28;20060;-77
2022/11/30 11:43:57;;;;;;;127.43;55.20;;;;;;;;;;5032351;28;20018;-77
2022/11/30 11:46:24;;;;;;;121.50;52.92;;;;;;;;;;5034770;28;20015;-77
2022/11/30 11:48:58;;;;;;;109.78;52.25;;;;;;;;;;5034084;28;20470;-77
2022/11/30 11:51:30;;;;;;;122.05;52.50;;;;;;;;;;5035007;28;20083;-76
2022/11/30 11:53:58;;;;;;;115.53;52.40;;;;;;;;;;5035706;28;20346;-77
2022/11/30 11:56:31;;;;;;;117.63;53.75;;;;;;;;;;5034272;28;20025;-76
2022/11/30 11:59:11;;;;;;;113.82;54.03;;;;;;;;;;5034792;28;20028;-76
2022/11/30 12:01:44;;;;;;;107.95;50.78;;;;;;;;;;5034776;28;20033;-76
2022/11/30 12:04:15;;;;;;;118.55;53.97;;;;;;;;;;5038385;28;20052;-76
2022/11/30 12:06:42;;;;;;;109.05;50.65;;;;;;;;;;5034244;28;20013;-76
2022/11/30 12:09:13;;;;;;;123.78;53.25;;;;;;;;;;5037530;28;20406;-77
2022/11/30 12:11:44;;;;;;;113.82;51.15;;;;;;;;;;5036398;28;20051;-77
2022/11/30 12:14:15;;;;;;;105.68;51.17;;;;;;;;;;5039484;28;20060;-76
2022/11/30 12:16:56;;;;;;;104.47;48.70;;;;;;;;;;5036402;28;20098;-77
2022/11/30 12:19:27;;;;;;;115.85;50.72;;;;;;;;;;5035884;28;20021;-76
2022/11/30 12:22:12;;;;;;;105.80;49.95;;;;;;;;;;5038682;28;20096;-77
2022/11/30 12:24:41;;;;;;;99.63;48.75;;;;;;;;;;5041506;28;20026;-77
2022/11/30 12:27:16;;;;;;;95.88;47.00;;;;;;;;;;5059908;28;20025;-76
2022/11/30 12:30:22;;;;;;;109.70;54.08;;;;;;;;;;5039044;28;20022;-77
2022/11/30 12:33:06;;;;;;;106.55;49.78;;;;;;;;;;4965632;28;20019;-76
2022/11/30 12:35:41;;;;;;;106.00;50.08;;;;;;;;;;4971498;28;20025;-77
2022/11/30 12:38:26;;;;;;;115.70;52.50;;;;;;;;;;5024101;28;20141;-76
2022/11/30 12:40:52;;;;;;;;;;;;;;;;;;5050829;28;20029;-74
2022/11/30 12:43:18;;;;;;;111.53;49.38;;;;;;;;;;5049199;28;19909;-76
2022/11/30 12:45:45;;;;;;;107.30;49.67;;;;;;;;;;5047933;28;20018;-77
2022/11/30 12:48:14;;;;;;;105.97;49.17;;;;;;;;;;5047888;28;20021;-77
2022/11/30 12:50:52;;;;;;;106.78;49.78;;;;;;;;;;5049217;28;20033;-75
2022/11/30 12:53:32;;;;;;;101.80;49.17;;;;;;;;;;5047668;28;20011;-77
2022/11/30 12:56:01;;;;;;;109.93;51.20;;;;;;;;;;5054076;28;20029;-75
2022/11/30 12:58:46;;;;;;;106.00;49.35;;;;;;;;;;5050984;28;20030;-77
2022/11/30 13:01:22;;;;;;;111.28;49.90;;;;;;;;;;5054883;28;20525;-77
2022/11/30 13:03:48;;;;;;;101.35;49.05;;;;;;;;;;5056718;28;20028;-76
2022/11/30 13:06:16;;;;;;;111.97;50.58;;;;;;;;;;5051739;28;20029;-76
2022/11/30 13:08:49;;;;;;;110.25;49.83;;;;;;;;;;5039819;28;20026;-78
2022/11/30 13:11:17;;;;;;;96.45;46.80;;;;;;;;;;5039029;28;20148;-78
2022/11/30 13:13:48;;;;;;;110.88;52.78;;;;;;;;;;5040242;28;20053;-77
2022/11/30 13:16:14;;;;;;;101.25;50.75;;;;;;;;;;5039325;28;20083;-79
2022/11/30 13:18:41;;;;;;;97.70;46.35;;;;;;;;;;5037366;28;20037;-76
2022/11/30 13:21:07;;;;;;;92.60;45.97;;;;;;;;;;5038744;28;20112;-76
2022/11/30 13:23:39;;;;;;;91.55;45.33;;;;;;;;;;5036421;28;20494;-77
2022/11/30 13:26:16;;;;;;;93.28;45.60;;;;;;;;;;5040453;28;20021;-76
2022/11/30 13:28:42;;;;;;;92.78;44.38;;;;;;;;;;5040604;28;20026;-76
2022/11/30 13:31:14;;;;;;;93.80;46.72;;;;;;;;;;5041258;28;20031;-76
2022/11/30 13:33:48;;;;;;;98.93;46.45;;;;;;;;;;5039897;28;20030;-75
2022/11/30 13:36:34;;;;;;;105.93;48.28;;;;;;;;;;5040116;28;20075;-77
2022/11/30 13:39:18;;;;;;;102.55;44.72;;;;;;;;;;5040769;28;20029;-78
2022/11/30 13:42:14;;;;;;;98.18;46.63;;;;;;;;;;5038598;28;20034;-76
2022/11/30 13:44:44;;;;;;;96.30;46.22;;;;;;;;;;5042830;28;20385;-77
2022/11/30 13:47:19;;;;;;;101.72;45.13;;;;;;;;;;5037947;28;20131;-77
2022/11/30 13:49:45;;;;;;;97.57;45.58;;;;;;;;;;5038901;28;20525;-77
2022/11/30 13:52:14;;;;;;;100.85;46.00;;;;;;;;;;5038287;28;20057;-77
2022/11/30 13:54:42;;;;;;;102.03;46.53;;;;;;;;;;5039753;28;20037;-76
2022/11/30 13:57:16;;;;;;;107.65;47.33;;;;;;;;;;5040765;28;20092;-77
2022/11/30 13:59:46;;;;;;;108.53;48.00;;;;;;;;;;5039442;28;20061;-76
2022/11/30 14:02:31;;;;;;;103.55;47.90;;;;;;;;;;5044305;28;20033;-76
2022/11/30 14:05:15;;;;;;;104.18;47.63;;;;;;;;;;5054516;28;20028;-77
2022/11/30 14:07:43;;;;;;;74.53;34.35;;;;;;;;;;5053048;28;20025;-75
2022/11/30 14:10:28;;;;;;;107.50;46.75;;;;;;;;;;5054902;28;20041;-75
2022/11/30 14:12:53;;;;;;;;;;;;;;;;;;5056117;28;20029;-76
2022/11/30 14:15:30;;;;;;;98.82;43.60;;;;;;;;;;5057992;28;19923;-75
2022/11/30 14:17:57;;;;;;;102.10;44.33;;;;;;;;;;5054676;28;20028;-76